sensor_id;sensor_type;location;lat;lon;timestamp;P1;durP1;ratioP1;P2;durP2;ratioP2
18114;SDS011;9184;54.390;18.620;2023-06-01T00:00:22;19.77;;;4.90;;
18114;SDS011;9184;54.390;18.620;2023-06-01T00:00:52;10.63;;;4.70;;
18114;SDS011;9184;54.390;18.620;2023-06-01T00:01:26;14.68;;;5.50;;
18114;SDS011;9184;54.390;18.620;2023-06-01T00:02:03;8.73;;;4.22;;
18114;SDS011;9184;54.390;18.620;2023-06-01T00:02:33;14.68;;;4.97;;
18114;SDS011;9184;54.390;18.620;2023-06-01T00:03:04;9.02;;;4.32;;
18114;SDS011;9184;54.390;18.620;2023-06-01T00:03:35;10.20;;;5.35;;
18114;SDS011;9184;54.390;18.620;2023-06-01T00:04:07;12.55;;;4.85;;
18114;SDS011;9184;54.390;18.620;2023-06-01T00:04:37;13.30;;;4.88;;
18114;SDS011;9184;54.390;18.620;2023-06-01T00:05:10;11.27;;;5.03;;
18114;SDS011;9184;54.390;18.620;2023-06-01T00:05:41;13.70;;;5.18;;
18114;SDS011;9184;54.390;18.620;2023-06-01T00:06:12;9.98;;;5.22;;
18114;SDS011;9184;54.390;18.620;2023-06-01T00:06:42;11.60;;;4.88;;
18114;SDS011;9184;54.390;18.620;2023-06-01T00:07:14;15.10;;;4.72;;
18114;SDS011;9184;54.390;18.620;2023-06-01T00:07:44;14.95;;;5.25;;
18114;SDS011;9184;54.390;18.620;2023-06-01T00:08:15;8.90;;;4.88;;
18114;SDS011;9184;54.390;18.620;2023-06-01T00:08:47;12.73;;;4.63;;
18114;SDS011;9184;54.390;18.620;2023-06-01T00:09:18;12.80;;;5.10;;
18114;SDS011;9184;54.390;18.620;2023-06-01T00:09:48;12.65;;;5.03;;
18114;SDS011;9184;54.390;18.620;2023-06-01T00:10:18;11.20;;;5.07;;
18114;SDS011;9184;54.390;18.620;2023-06-01T00:10:50;12.45;;;4.75;;
18114;SDS011;9184;54.390;18.620;2023-06-01T00:11:22;10.77;;;4.90;;
18114;SDS011;9184;54.390;18.620;2023-06-01T00:11:52;18.02;;;5.45;;
18114;SDS011;9184;54.390;18.620;2023-06-01T00:12:24;10.80;;;5.05;;
18114;SDS011;9184;54.390;18.620;2023-06-01T00:12:55;14.32;;;5.07;;
18114;SDS011;9184;54.390;18.620;2023-06-01T00:13:26;7.07;;;4.93;;
18114;SDS011;9184;54.390;18.620;2023-06-01T00:13:57;11.25;;;4.93;;
18114;SDS011;9184;54.390;18.620;2023-06-01T00:14:28;10.13;;;4.90;;
18114;SDS011;9184;54.390;18.620;2023-06-01T00:14:59;12.57;;;4.45;;
18114;SDS011;9184;54.390;18.620;2023-06-01T00:15:30;12.73;;;5.10;;
18114;SDS011;9184;54.390;18.620;2023-06-01T00:16:00;12.02;;;5.05;;
18114;SDS011;9184;54.390;18.620;2023-06-01T00:16:32;12.18;;;5.07;;
18114;SDS011;9184;54.390;18.620;2023-06-01T00:17:03;11.07;;;4.97;;
18114;SDS011;9184;54.390;18.620;2023-06-01T00:17:35;15.45;;;4.95;;
18114;SDS011;9184;54.390;18.620;2023-06-01T00:18:07;8.25;;;4.93;;
18114;SDS011;9184;54.390;18.620;2023-06-01T00:18:42;13.18;;;5.30;;
18114;SDS011;9184;54.390;18.620;2023-06-01T00:19:14;12.48;;;5.10;;
18114;SDS011;9184;54.390;18.620;2023-06-01T00:19:45;13.05;;;4.95;;
18114;SDS011;9184;54.390;18.620;2023-06-01T00:20:18;8.70;;;4.40;;
18114;SDS011;9184;54.390;18.620;2023-06-01T00:20:48;16.98;;;4.82;;
18114;SDS011;9184;54.390;18.620;2023-06-01T00:21:18;12.43;;;4.85;;
18114;SDS011;9184;54.390;18.620;2023-06-01T00:21:49;12.10;;;4.90;;
18114;SDS011;9184;54.390;18.620;2023-06-01T00:22:21;13.45;;;4.50;;
18114;SDS011;9184;54.390;18.620;2023-06-01T00:22:54;11.93;;;4.53;;
18114;SDS011;9184;54.390;18.620;2023-06-01T00:23:25;8.32;;;4.43;;
18114;SDS011;9184;54.390;18.620;2023-06-01T00:23:58;15.98;;;5.47;;
18114;SDS011;9184;54.390;18.620;2023-06-01T00:24:29;14.00;;;5.35;;
18114;SDS011;9184;54.390;18.620;2023-06-01T00:25:01;15.98;;;5.18;;
18114;SDS011;9184;54.390;18.620;2023-06-01T00:25:31;8.10;;;4.53;;
18114;SDS011;9184;54.390;18.620;2023-06-01T00:26:03;16.13;;;5.07;;
18114;SDS011;9184;54.390;18.620;2023-06-01T00:26:34;17.30;;;5.25;;
18114;SDS011;9184;54.390;18.620;2023-06-01T00:27:05;20.38;;;5.35;;
18114;SDS011;9184;54.390;18.620;2023-06-01T00:27:37;10.85;;;4.97;;
18114;SDS011;9184;54.390;18.620;2023-06-01T00:28:08;10.63;;;4.63;;
18114;SDS011;9184;54.390;18.620;2023-06-01T00:28:38;16.63;;;5.43;;
18114;SDS011;9184;54.390;18.620;2023-06-01T00:29:09;11.55;;;4.82;;
18114;SDS011;9184;54.390;18.620;2023-06-01T00:29:40;18.42;;;5.07;;
18114;SDS011;9184;54.390;18.620;2023-06-01T00:30:11;10.13;;;4.80;;
18114;SDS011;9184;54.390;18.620;2023-06-01T00:30:43;9.60;;;4.68;;
18114;SDS011;9184;54.390;18.620;2023-06-01T00:31:13;16.23;;;6.18;;
18114;SDS011;9184;54.390;18.620;2023-06-01T00:31:44;17.23;;;6.07;;
18114;SDS011;9184;54.390;18.620;2023-06-01T00:32:16;14.02;;;5.57;;
18114;SDS011;9184;54.390;18.620;2023-06-01T00:32:46;17.38;;;5.10;;
18114;SDS011;9184;54.390;18.620;2023-06-01T00:33:17;10.52;;;5.25;;
18114;SDS011;9184;54.390;18.620;2023-06-01T00:33:48;11.38;;;5.03;;
18114;SDS011;9184;54.390;18.620;2023-06-01T00:34:19;11.70;;;5.68;;
18114;SDS011;9184;54.390;18.620;2023-06-01T00:34:49;9.13;;;5.03;;
18114;SDS011;9184;54.390;18.620;2023-06-01T00:35:20;10.75;;;5.03;;
18114;SDS011;9184;54.390;18.620;2023-06-01T00:35:51;12.65;;;5.07;;
18114;SDS011;9184;54.390;18.620;2023-06-01T00:36:22;10.75;;;5.45;;
18114;SDS011;9184;54.390;18.620;2023-06-01T00:36:54;13.93;;;4.72;;
18114;SDS011;9184;54.390;18.620;2023-06-01T00:37:25;11.77;;;5.63;;
18114;SDS011;9184;54.390;18.620;2023-06-01T00:37:56;9.40;;;5.35;;
18114;SDS011;9184;54.390;18.620;2023-06-01T00:38:27;12.27;;;5.32;;
18114;SDS011;9184;54.390;18.620;2023-06-01T00:38:57;12.95;;;6.03;;
18114;SDS011;9184;54.390;18.620;2023-06-01T00:39:32;9.65;;;5.22;;
18114;SDS011;9184;54.390;18.620;2023-06-01T00:40:03;13.90;;;5.95;;
18114;SDS011;9184;54.390;18.620;2023-06-01T00:40:34;13.20;;;4.90;;
18114;SDS011;9184;54.390;18.620;2023-06-01T00:41:04;14.43;;;5.72;;
18114;SDS011;9184;54.390;18.620;2023-06-01T00:41:37;13.63;;;5.68;;
18114;SDS011;9184;54.390;18.620;2023-06-01T00:42:07;12.10;;;4.85;;
18114;SDS011;9184;54.390;18.620;2023-06-01T00:42:38;12.80;;;5.60;;
18114;SDS011;9184;54.390;18.620;2023-06-01T00:43:09;14.63;;;6.05;;
18114;SDS011;9184;54.390;18.620;2023-06-01T00:43:40;10.63;;;5.20;;
18114;SDS011;9184;54.390;18.620;2023-06-01T00:44:10;14.73;;;6.05;;
18114;SDS011;9184;54.390;18.620;2023-06-01T00:44:41;10.48;;;5.32;;
18114;SDS011;9184;54.390;18.620;2023-06-01T00:45:12;11.18;;;5.53;;
18114;SDS011;9184;54.390;18.620;2023-06-01T00:45:43;13.60;;;5.50;;
18114;SDS011;9184;54.390;18.620;2023-06-01T00:46:14;13.43;;;5.47;;
18114;SDS011;9184;54.390;18.620;2023-06-01T00:46:45;12.75;;;5.57;;
18114;SDS011;9184;54.390;18.620;2023-06-01T00:47:16;15.82;;;5.30;;
18114;SDS011;9184;54.390;18.620;2023-06-01T00:47:46;10.00;;;5.38;;
18114;SDS011;9184;54.390;18.620;2023-06-01T00:48:17;15.23;;;5.68;;
18114;SDS011;9184;54.390;18.620;2023-06-01T00:48:49;13.95;;;5.43;;
18114;SDS011;9184;54.390;18.620;2023-06-01T00:49:20;12.13;;;5.50;;
18114;SDS011;9184;54.390;18.620;2023-06-01T00:49:52;13.23;;;5.95;;
18114;SDS011;9184;54.390;18.620;2023-06-01T00:50:23;12.85;;;5.70;;
18114;SDS011;9184;54.390;18.620;2023-06-01T00:50:54;9.95;;;5.65;;
18114;SDS011;9184;54.390;18.620;2023-06-01T00:51:24;13.27;;;5.65;;
18114;SDS011;9184;54.390;18.620;2023-06-01T00:51:56;9.25;;;5.20;;
18114;SDS011;9184;54.390;18.620;2023-06-01T00:52:26;15.32;;;6.10;;
18114;SDS011;9184;54.390;18.620;2023-06-01T00:52:57;10.18;;;5.68;;
18114;SDS011;9184;54.390;18.620;2023-06-01T00:53:29;12.38;;;5.88;;
18114;SDS011;9184;54.390;18.620;2023-06-01T00:54:00;11.23;;;5.28;;
18114;SDS011;9184;54.390;18.620;2023-06-01T00:54:30;10.50;;;4.95;;
18114;SDS011;9184;54.390;18.620;2023-06-01T00:55:02;14.45;;;6.07;;
18114;SDS011;9184;54.390;18.620;2023-06-01T00:55:33;12.25;;;5.68;;
18114;SDS011;9184;54.390;18.620;2023-06-01T00:56:04;10.50;;;5.47;;
18114;SDS011;9184;54.390;18.620;2023-06-01T00:56:38;12.77;;;6.13;;
18114;SDS011;9184;54.390;18.620;2023-06-01T00:57:09;13.50;;;5.80;;
18114;SDS011;9184;54.390;18.620;2023-06-01T00:57:40;13.20;;;5.88;;
18114;SDS011;9184;54.390;18.620;2023-06-01T00:58:12;14.15;;;5.53;;
18114;SDS011;9184;54.390;18.620;2023-06-01T00:58:44;13.95;;;6.38;;
18114;SDS011;9184;54.390;18.620;2023-06-01T00:59:15;12.13;;;5.75;;
18114;SDS011;9184;54.390;18.620;2023-06-01T00:59:45;16.13;;;6.03;;
18114;SDS011;9184;54.390;18.620;2023-06-01T01:00:16;9.43;;;5.45;;
18114;SDS011;9184;54.390;18.620;2023-06-01T01:00:46;12.18;;;5.68;;
18114;SDS011;9184;54.390;18.620;2023-06-01T01:01:18;15.90;;;5.78;;
18114;SDS011;9184;54.390;18.620;2023-06-01T01:01:49;15.13;;;5.50;;
18114;SDS011;9184;54.390;18.620;2023-06-01T01:02:19;14.13;;;6.30;;
18114;SDS011;9184;54.390;18.620;2023-06-01T01:02:51;17.65;;;5.82;;
18114;SDS011;9184;54.390;18.620;2023-06-01T01:03:23;14.10;;;6.03;;
18114;SDS011;9184;54.390;18.620;2023-06-01T01:03:56;14.68;;;6.22;;
18114;SDS011;9184;54.390;18.620;2023-06-01T01:04:27;14.73;;;5.63;;
18114;SDS011;9184;54.390;18.620;2023-06-01T01:04:58;11.48;;;6.38;;
18114;SDS011;9184;54.390;18.620;2023-06-01T01:05:29;9.32;;;5.35;;
18114;SDS011;9184;54.390;18.620;2023-06-01T01:06:04;13.43;;;5.50;;
18114;SDS011;9184;54.390;18.620;2023-06-01T01:06:44;16.95;;;6.47;;
18114;SDS011;9184;54.390;18.620;2023-06-01T01:07:19;13.85;;;5.47;;
18114;SDS011;9184;54.390;18.620;2023-06-01T01:07:53;8.20;;;5.32;;
18114;SDS011;9184;54.390;18.620;2023-06-01T01:08:28;14.70;;;5.93;;
18114;SDS011;9184;54.390;18.620;2023-06-01T01:09:08;12.05;;;6.15;;
18114;SDS011;9184;54.390;18.620;2023-06-01T01:09:41;12.65;;;5.90;;
18114;SDS011;9184;54.390;18.620;2023-06-01T01:10:17;11.65;;;5.55;;
18114;SDS011;9184;54.390;18.620;2023-06-01T01:10:52;13.05;;;6.05;;
18114;SDS011;9184;54.390;18.620;2023-06-01T01:11:25;16.52;;;6.15;;
18114;SDS011;9184;54.390;18.620;2023-06-01T01:11:59;11.95;;;5.47;;
18114;SDS011;9184;54.390;18.620;2023-06-01T01:12:31;12.68;;;5.25;;
18114;SDS011;9184;54.390;18.620;2023-06-01T01:13:04;13.45;;;5.70;;
18114;SDS011;9184;54.390;18.620;2023-06-01T01:13:39;10.57;;;5.38;;
18114;SDS011;9184;54.390;18.620;2023-06-01T01:14:13;14.85;;;6.03;;
18114;SDS011;9184;54.390;18.620;2023-06-01T01:14:46;13.30;;;6.07;;
18114;SDS011;9184;54.390;18.620;2023-06-01T01:15:21;17.05;;;6.35;;
18114;SDS011;9184;54.390;18.620;2023-06-01T01:15:55;13.73;;;6.10;;
18114;SDS011;9184;54.390;18.620;2023-06-01T01:16:28;16.00;;;5.97;;
18114;SDS011;9184;54.390;18.620;2023-06-01T01:17:01;14.88;;;6.03;;
18114;SDS011;9184;54.390;18.620;2023-06-01T01:17:36;15.02;;;5.90;;
18114;SDS011;9184;54.390;18.620;2023-06-01T01:18:11;14.80;;;5.70;;
18114;SDS011;9184;54.390;18.620;2023-06-01T01:18:45;13.52;;;6.03;;
18114;SDS011;9184;54.390;18.620;2023-06-01T01:19:21;16.15;;;6.70;;
18114;SDS011;9184;54.390;18.620;2023-06-01T01:19:58;14.57;;;6.00;;
18114;SDS011;9184;54.390;18.620;2023-06-01T01:20:32;15.65;;;6.00;;
18114;SDS011;9184;54.390;18.620;2023-06-01T01:21:04;16.00;;;6.95;;
18114;SDS011;9184;54.390;18.620;2023-06-01T01:21:57;17.08;;;6.25;;
18114;SDS011;9184;54.390;18.620;2023-06-01T01:22:39;11.57;;;6.15;;
18114;SDS011;9184;54.390;18.620;2023-06-01T01:23:15;12.13;;;5.75;;
18114;SDS011;9184;54.390;18.620;2023-06-01T01:24:06;15.90;;;5.93;;
18114;SDS011;9184;54.390;18.620;2023-06-01T01:24:43;17.30;;;6.10;;
18114;SDS011;9184;54.390;18.620;2023-06-01T01:25:25;13.43;;;6.25;;
18114;SDS011;9184;54.390;18.620;2023-06-01T01:26:13;15.45;;;5.75;;
18114;SDS011;9184;54.390;18.620;2023-06-01T01:26:48;14.90;;;5.97;;
18114;SDS011;9184;54.390;18.620;2023-06-01T01:27:28;11.88;;;5.60;;
18114;SDS011;9184;54.390;18.620;2023-06-01T01:28:09;11.70;;;6.05;;
18114;SDS011;9184;54.390;18.620;2023-06-01T01:28:42;9.80;;;5.30;;
18114;SDS011;9184;54.390;18.620;2023-06-01T01:29:14;16.55;;;5.88;;
18114;SDS011;9184;54.390;18.620;2023-06-01T01:29:45;14.23;;;5.70;;
18114;SDS011;9184;54.390;18.620;2023-06-01T01:30:17;20.52;;;5.85;;
18114;SDS011;9184;54.390;18.620;2023-06-01T01:30:51;15.07;;;6.07;;
18114;SDS011;9184;54.390;18.620;2023-06-01T01:31:24;15.30;;;6.10;;
18114;SDS011;9184;54.390;18.620;2023-06-01T01:31:55;16.08;;;6.75;;
18114;SDS011;9184;54.390;18.620;2023-06-01T01:32:26;12.65;;;5.85;;
18114;SDS011;9184;54.390;18.620;2023-06-01T01:32:57;14.18;;;6.38;;
18114;SDS011;9184;54.390;18.620;2023-06-01T01:33:28;15.65;;;5.63;;
18114;SDS011;9184;54.390;18.620;2023-06-01T01:34:00;13.27;;;5.78;;
18114;SDS011;9184;54.390;18.620;2023-06-01T01:34:32;11.82;;;5.47;;
18114;SDS011;9184;54.390;18.620;2023-06-01T01:35:02;13.50;;;5.90;;
18114;SDS011;9184;54.390;18.620;2023-06-01T01:35:35;15.75;;;5.93;;
18114;SDS011;9184;54.390;18.620;2023-06-01T01:36:06;14.95;;;6.00;;
18114;SDS011;9184;54.390;18.620;2023-06-01T01:36:37;14.85;;;5.63;;
18114;SDS011;9184;54.390;18.620;2023-06-01T01:37:08;20.38;;;6.50;;
18114;SDS011;9184;54.390;18.620;2023-06-01T01:37:49;14.85;;;5.72;;
18114;SDS011;9184;54.390;18.620;2023-06-01T01:38:20;17.52;;;6.32;;
18114;SDS011;9184;54.390;18.620;2023-06-01T01:38:51;18.25;;;6.75;;
18114;SDS011;9184;54.390;18.620;2023-06-01T01:39:21;14.00;;;6.22;;
18114;SDS011;9184;54.390;18.620;2023-06-01T01:39:52;19.85;;;6.22;;
18114;SDS011;9184;54.390;18.620;2023-06-01T01:40:23;14.15;;;6.20;;
18114;SDS011;9184;54.390;18.620;2023-06-01T01:40:54;15.75;;;5.40;;
18114;SDS011;9184;54.390;18.620;2023-06-01T01:41:24;13.90;;;6.20;;
18114;SDS011;9184;54.390;18.620;2023-06-01T01:41:56;17.65;;;6.05;;
18114;SDS011;9184;54.390;18.620;2023-06-01T01:42:27;17.27;;;6.15;;
18114;SDS011;9184;54.390;18.620;2023-06-01T01:42:58;20.30;;;6.57;;
18114;SDS011;9184;54.390;18.620;2023-06-01T01:43:30;21.98;;;6.35;;
18114;SDS011;9184;54.390;18.620;2023-06-01T01:44:02;20.95;;;5.78;;
18114;SDS011;9184;54.390;18.620;2023-06-01T01:44:33;22.40;;;6.30;;
18114;SDS011;9184;54.390;18.620;2023-06-01T01:45:04;18.33;;;6.20;;
18114;SDS011;9184;54.390;18.620;2023-06-01T01:45:36;10.77;;;5.88;;
18114;SDS011;9184;54.390;18.620;2023-06-01T01:46:20;12.25;;;5.40;;
18114;SDS011;9184;54.390;18.620;2023-06-01T01:46:52;14.52;;;6.15;;
18114;SDS011;9184;54.390;18.620;2023-06-01T01:47:27;14.07;;;6.45;;
18114;SDS011;9184;54.390;18.620;2023-06-01T01:48:03;14.73;;;6.60;;
18114;SDS011;9184;54.390;18.620;2023-06-01T01:48:37;12.43;;;6.10;;
18114;SDS011;9184;54.390;18.620;2023-06-01T01:49:10;13.10;;;5.80;;
18114;SDS011;9184;54.390;18.620;2023-06-01T01:49:43;13.82;;;6.10;;
18114;SDS011;9184;54.390;18.620;2023-06-01T01:50:14;13.30;;;6.15;;
18114;SDS011;9184;54.390;18.620;2023-06-01T01:50:48;19.55;;;6.80;;
18114;SDS011;9184;54.390;18.620;2023-06-01T01:51:20;17.10;;;6.22;;
18114;SDS011;9184;54.390;18.620;2023-06-01T01:51:53;14.82;;;6.60;;
18114;SDS011;9184;54.390;18.620;2023-06-01T01:52:31;15.65;;;6.03;;
18114;SDS011;9184;54.390;18.620;2023-06-01T01:53:02;18.00;;;6.55;;
18114;SDS011;9184;54.390;18.620;2023-06-01T01:53:35;11.15;;;5.93;;
18114;SDS011;9184;54.390;18.620;2023-06-01T01:54:07;12.63;;;6.28;;
18114;SDS011;9184;54.390;18.620;2023-06-01T01:54:40;16.60;;;6.10;;
18114;SDS011;9184;54.390;18.620;2023-06-01T01:55:11;18.08;;;6.40;;
18114;SDS011;9184;54.390;18.620;2023-06-01T01:55:46;15.25;;;6.57;;
18114;SDS011;9184;54.390;18.620;2023-06-01T01:56:17;18.00;;;6.30;;
18114;SDS011;9184;54.390;18.620;2023-06-01T01:56:48;13.75;;;6.10;;
18114;SDS011;9184;54.390;18.620;2023-06-01T01:57:20;11.52;;;6.00;;
18114;SDS011;9184;54.390;18.620;2023-06-01T01:57:53;16.38;;;5.93;;
18114;SDS011;9184;54.390;18.620;2023-06-01T01:58:24;14.20;;;6.53;;
18114;SDS011;9184;54.390;18.620;2023-06-01T01:58:57;13.50;;;6.65;;
18114;SDS011;9184;54.390;18.620;2023-06-01T01:59:29;15.13;;;6.28;;
18114;SDS011;9184;54.390;18.620;2023-06-01T02:00:00;18.20;;;6.35;;
18114;SDS011;9184;54.390;18.620;2023-06-01T02:00:32;15.77;;;5.97;;
18114;SDS011;9184;54.390;18.620;2023-06-01T02:01:02;13.90;;;6.35;;
18114;SDS011;9184;54.390;18.620;2023-06-01T02:01:33;17.38;;;6.55;;
18114;SDS011;9184;54.390;18.620;2023-06-01T02:02:05;14.98;;;6.68;;
18114;SDS011;9184;54.390;18.620;2023-06-01T02:02:35;13.95;;;6.68;;
18114;SDS011;9184;54.390;18.620;2023-06-01T02:03:12;19.02;;;6.55;;
18114;SDS011;9184;54.390;18.620;2023-06-01T02:03:43;16.20;;;6.30;;
18114;SDS011;9184;54.390;18.620;2023-06-01T02:04:14;14.15;;;6.35;;
18114;SDS011;9184;54.390;18.620;2023-06-01T02:04:45;12.90;;;6.35;;
18114;SDS011;9184;54.390;18.620;2023-06-01T02:05:16;15.32;;;7.07;;
18114;SDS011;9184;54.390;18.620;2023-06-01T02:05:47;15.20;;;5.97;;
18114;SDS011;9184;54.390;18.620;2023-06-01T02:06:17;19.02;;;6.20;;
18114;SDS011;9184;54.390;18.620;2023-06-01T02:06:49;16.73;;;6.82;;
18114;SDS011;9184;54.390;18.620;2023-06-01T02:07:19;14.55;;;6.50;;
18114;SDS011;9184;54.390;18.620;2023-06-01T02:07:50;19.48;;;6.95;;
18114;SDS011;9184;54.390;18.620;2023-06-01T02:08:22;21.63;;;7.00;;
18114;SDS011;9184;54.390;18.620;2023-06-01T02:08:52;17.00;;;5.88;;
18114;SDS011;9184;54.390;18.620;2023-06-01T02:09:24;16.30;;;6.82;;
18114;SDS011;9184;54.390;18.620;2023-06-01T02:09:55;16.15;;;6.43;;
18114;SDS011;9184;54.390;18.620;2023-06-01T02:10:26;12.27;;;6.85;;
18114;SDS011;9184;54.390;18.620;2023-06-01T02:10:56;14.63;;;6.60;;
18114;SDS011;9184;54.390;18.620;2023-06-01T02:11:27;16.42;;;6.60;;
18114;SDS011;9184;54.390;18.620;2023-06-01T02:11:58;18.85;;;7.15;;
18114;SDS011;9184;54.390;18.620;2023-06-01T02:12:29;16.27;;;6.53;;
18114;SDS011;9184;54.390;18.620;2023-06-01T02:12:59;16.73;;;6.18;;
18114;SDS011;9184;54.390;18.620;2023-06-01T02:13:32;17.20;;;6.30;;
18114;SDS011;9184;54.390;18.620;2023-06-01T02:14:02;13.50;;;6.32;;
18114;SDS011;9184;54.390;18.620;2023-06-01T02:14:34;14.13;;;6.70;;
18114;SDS011;9184;54.390;18.620;2023-06-01T02:15:06;20.33;;;6.95;;
18114;SDS011;9184;54.390;18.620;2023-06-01T02:15:37;12.48;;;6.10;;
18114;SDS011;9184;54.390;18.620;2023-06-01T02:16:07;15.18;;;7.05;;
18114;SDS011;9184;54.390;18.620;2023-06-01T02:16:39;19.70;;;6.65;;
18114;SDS011;9184;54.390;18.620;2023-06-01T02:17:09;18.45;;;6.13;;
18114;SDS011;9184;54.390;18.620;2023-06-01T02:17:40;20.13;;;7.18;;
18114;SDS011;9184;54.390;18.620;2023-06-01T02:18:13;15.73;;;7.25;;
18114;SDS011;9184;54.390;18.620;2023-06-01T02:18:46;24.65;;;7.22;;
18114;SDS011;9184;54.390;18.620;2023-06-01T02:19:16;13.45;;;6.82;;
18114;SDS011;9184;54.390;18.620;2023-06-01T02:19:48;15.32;;;7.45;;
18114;SDS011;9184;54.390;18.620;2023-06-01T02:20:18;16.95;;;6.97;;
18114;SDS011;9184;54.390;18.620;2023-06-01T02:20:49;17.13;;;7.50;;
18114;SDS011;9184;54.390;18.620;2023-06-01T02:21:20;20.85;;;7.15;;
18114;SDS011;9184;54.390;18.620;2023-06-01T02:21:52;15.00;;;7.13;;
18114;SDS011;9184;54.390;18.620;2023-06-01T02:22:22;15.80;;;7.22;;
18114;SDS011;9184;54.390;18.620;2023-06-01T02:22:53;17.52;;;6.90;;
18114;SDS011;9184;54.390;18.620;2023-06-01T02:23:24;14.07;;;6.00;;
18114;SDS011;9184;54.390;18.620;2023-06-01T02:23:55;12.80;;;6.20;;
18114;SDS011;9184;54.390;18.620;2023-06-01T02:24:25;14.48;;;6.72;;
18114;SDS011;9184;54.390;18.620;2023-06-01T02:24:58;15.57;;;7.38;;
18114;SDS011;9184;54.390;18.620;2023-06-01T02:25:28;13.82;;;6.32;;
18114;SDS011;9184;54.390;18.620;2023-06-01T02:25:59;18.83;;;6.90;;
18114;SDS011;9184;54.390;18.620;2023-06-01T02:26:30;22.48;;;7.25;;
18114;SDS011;9184;54.390;18.620;2023-06-01T02:27:04;17.85;;;6.53;;
18114;SDS011;9184;54.390;18.620;2023-06-01T02:27:35;19.63;;;7.15;;
18114;SDS011;9184;54.390;18.620;2023-06-01T02:28:05;13.52;;;6.47;;
18114;SDS011;9184;54.390;18.620;2023-06-01T02:28:37;19.42;;;6.78;;
18114;SDS011;9184;54.390;18.620;2023-06-01T02:29:08;18.80;;;7.38;;
18114;SDS011;9184;54.390;18.620;2023-06-01T02:29:40;15.38;;;6.68;;
18114;SDS011;9184;54.390;18.620;2023-06-01T02:30:11;17.35;;;6.85;;
18114;SDS011;9184;54.390;18.620;2023-06-01T02:30:43;14.23;;;6.25;;
18114;SDS011;9184;54.390;18.620;2023-06-01T02:31:13;17.85;;;6.50;;
18114;SDS011;9184;54.390;18.620;2023-06-01T02:31:44;15.50;;;6.82;;
18114;SDS011;9184;54.390;18.620;2023-06-01T02:32:16;14.43;;;7.10;;
18114;SDS011;9184;54.390;18.620;2023-06-01T02:32:46;13.52;;;6.82;;
18114;SDS011;9184;54.390;18.620;2023-06-01T02:33:18;16.23;;;7.40;;
18114;SDS011;9184;54.390;18.620;2023-06-01T02:33:49;17.13;;;6.43;;
18114;SDS011;9184;54.390;18.620;2023-06-01T02:34:20;13.90;;;6.53;;
18114;SDS011;9184;54.390;18.620;2023-06-01T02:34:51;17.63;;;6.97;;
18114;SDS011;9184;54.390;18.620;2023-06-01T02:35:21;12.45;;;6.70;;
18114;SDS011;9184;54.390;18.620;2023-06-01T02:35:53;18.83;;;6.75;;
18114;SDS011;9184;54.390;18.620;2023-06-01T02:36:23;17.27;;;7.25;;
18114;SDS011;9184;54.390;18.620;2023-06-01T02:36:55;13.73;;;6.18;;
18114;SDS011;9184;54.390;18.620;2023-06-01T02:37:27;20.05;;;8.25;;
18114;SDS011;9184;54.390;18.620;2023-06-01T02:37:59;12.57;;;6.53;;
18114;SDS011;9184;54.390;18.620;2023-06-01T02:38:30;13.98;;;6.38;;
18114;SDS011;9184;54.390;18.620;2023-06-01T02:39:01;15.95;;;6.95;;
18114;SDS011;9184;54.390;18.620;2023-06-01T02:39:32;15.82;;;7.03;;
18114;SDS011;9184;54.390;18.620;2023-06-01T02:40:02;23.40;;;7.55;;
18114;SDS011;9184;54.390;18.620;2023-06-01T02:40:34;13.93;;;6.22;;
18114;SDS011;9184;54.390;18.620;2023-06-01T02:41:04;15.90;;;6.45;;
18114;SDS011;9184;54.390;18.620;2023-06-01T02:41:35;15.52;;;6.90;;
18114;SDS011;9184;54.390;18.620;2023-06-01T02:42:06;17.90;;;7.18;;
18114;SDS011;9184;54.390;18.620;2023-06-01T02:42:37;13.82;;;6.75;;
18114;SDS011;9184;54.390;18.620;2023-06-01T02:43:08;12.25;;;6.30;;
18114;SDS011;9184;54.390;18.620;2023-06-01T02:43:39;16.38;;;6.65;;
18114;SDS011;9184;54.390;18.620;2023-06-01T02:44:10;18.60;;;7.45;;
18114;SDS011;9184;54.390;18.620;2023-06-01T02:44:42;17.42;;;7.07;;
18114;SDS011;9184;54.390;18.620;2023-06-01T02:45:14;16.90;;;6.75;;
18114;SDS011;9184;54.390;18.620;2023-06-01T02:45:44;19.02;;;6.32;;
18114;SDS011;9184;54.390;18.620;2023-06-01T02:46:15;12.27;;;6.97;;
18114;SDS011;9184;54.390;18.620;2023-06-01T02:46:45;14.85;;;6.53;;
18114;SDS011;9184;54.390;18.620;2023-06-01T02:47:17;15.05;;;6.30;;
18114;SDS011;9184;54.390;18.620;2023-06-01T02:47:47;19.85;;;6.93;;
18114;SDS011;9184;54.390;18.620;2023-06-01T02:48:18;14.80;;;6.97;;
18114;SDS011;9184;54.390;18.620;2023-06-01T02:48:49;16.02;;;7.60;;
18114;SDS011;9184;54.390;18.620;2023-06-01T02:49:21;15.05;;;6.53;;
18114;SDS011;9184;54.390;18.620;2023-06-01T02:49:51;15.68;;;6.10;;
18114;SDS011;9184;54.390;18.620;2023-06-01T02:50:23;15.20;;;6.80;;
18114;SDS011;9184;54.390;18.620;2023-06-01T02:50:53;12.82;;;6.68;;
18114;SDS011;9184;54.390;18.620;2023-06-01T02:51:24;15.15;;;6.25;;
18114;SDS011;9184;54.390;18.620;2023-06-01T02:51:55;16.50;;;6.15;;
18114;SDS011;9184;54.390;18.620;2023-06-01T02:52:26;16.20;;;7.10;;
18114;SDS011;9184;54.390;18.620;2023-06-01T02:52:57;19.98;;;7.30;;
18114;SDS011;9184;54.390;18.620;2023-06-01T02:53:28;12.00;;;6.50;;
18114;SDS011;9184;54.390;18.620;2023-06-01T02:54:00;16.77;;;6.30;;
18114;SDS011;9184;54.390;18.620;2023-06-01T02:54:30;19.13;;;7.05;;
18114;SDS011;9184;54.390;18.620;2023-06-01T02:55:01;13.38;;;6.82;;
18114;SDS011;9184;54.390;18.620;2023-06-01T02:55:32;20.00;;;6.57;;
18114;SDS011;9184;54.390;18.620;2023-06-01T02:56:03;14.45;;;6.20;;
18114;SDS011;9184;54.390;18.620;2023-06-01T02:56:33;22.17;;;6.75;;
18114;SDS011;9184;54.390;18.620;2023-06-01T02:57:05;14.07;;;6.47;;
18114;SDS011;9184;54.390;18.620;2023-06-01T02:57:36;14.65;;;5.88;;
18114;SDS011;9184;54.390;18.620;2023-06-01T02:58:07;11.35;;;6.20;;
18114;SDS011;9184;54.390;18.620;2023-06-01T02:58:44;11.30;;;5.93;;
18114;SDS011;9184;54.390;18.620;2023-06-01T02:59:16;19.20;;;6.72;;
18114;SDS011;9184;54.390;18.620;2023-06-01T02:59:48;15.90;;;5.78;;
18114;SDS011;9184;54.390;18.620;2023-06-01T03:00:18;16.27;;;6.18;;
18114;SDS011;9184;54.390;18.620;2023-06-01T03:00:49;16.08;;;6.72;;
18114;SDS011;9184;54.390;18.620;2023-06-01T03:01:21;13.30;;;6.20;;
18114;SDS011;9184;54.390;18.620;2023-06-01T03:01:52;19.52;;;7.10;;
18114;SDS011;9184;54.390;18.620;2023-06-01T03:02:22;17.17;;;6.53;;
18114;SDS011;9184;54.390;18.620;2023-06-01T03:02:54;10.23;;;6.30;;
18114;SDS011;9184;54.390;18.620;2023-06-01T03:03:24;16.23;;;6.78;;
18114;SDS011;9184;54.390;18.620;2023-06-01T03:03:55;9.98;;;5.55;;
18114;SDS011;9184;54.390;18.620;2023-06-01T03:04:26;15.30;;;6.78;;
18114;SDS011;9184;54.390;18.620;2023-06-01T03:04:59;16.08;;;6.22;;
18114;SDS011;9184;54.390;18.620;2023-06-01T03:05:29;16.40;;;6.18;;
18114;SDS011;9184;54.390;18.620;2023-06-01T03:06:03;14.07;;;5.82;;
18114;SDS011;9184;54.390;18.620;2023-06-01T03:06:35;13.93;;;5.80;;
18114;SDS011;9184;54.390;18.620;2023-06-01T03:07:07;12.93;;;5.65;;
18114;SDS011;9184;54.390;18.620;2023-06-01T03:07:39;16.60;;;6.68;;
18114;SDS011;9184;54.390;18.620;2023-06-01T03:08:09;15.85;;;5.85;;
18114;SDS011;9184;54.390;18.620;2023-06-01T03:08:40;20.52;;;6.13;;
18114;SDS011;9184;54.390;18.620;2023-06-01T03:09:11;15.13;;;6.32;;
18114;SDS011;9184;54.390;18.620;2023-06-01T03:09:43;14.05;;;6.38;;
18114;SDS011;9184;54.390;18.620;2023-06-01T03:10:13;20.67;;;6.68;;